sensor_id;sensor_type;location;lat;lon;timestamp;P1;durP1;ratioP1;P2;durP2;ratioP2
75937;SDS011;64615;32.062;34.834;2023-08-30T00:00:41;9.00;;;4.40;;
75937;SDS011;64615;32.062;34.834;2023-08-30T00:03:07;8.70;;;4.68;;
75937;SDS011;64615;32.062;34.834;2023-08-30T00:05:33;8.25;;;4.53;;
75937;SDS011;64615;32.062;34.834;2023-08-30T00:07:59;9.93;;;4.70;;
75937;SDS011;64615;32.062;34.834;2023-08-30T00:10:25;8.52;;;4.40;;
75937;SDS011;64615;32.062;34.834;2023-08-30T00:12:50;8.60;;;4.57;;
75937;SDS011;64615;32.062;34.834;2023-08-30T00:15:16;8.38;;;4.32;;
75937;SDS011;64615;32.062;34.834;2023-08-30T00:17:42;8.90;;;4.15;;
75937;SDS011;64615;32.062;34.834;2023-08-30T00:20:08;7.63;;;4.13;;
75937;SDS011;64615;32.062;34.834;2023-08-30T00:22:34;7.13;;;4.18;;
75937;SDS011;64615;32.062;34.834;2023-08-30T00:25:03;6.60;;;3.90;;
75937;SDS011;64615;32.062;34.834;2023-08-30T00:27:29;8.30;;;4.28;;
75937;SDS011;64615;32.062;34.834;2023-08-30T00:29:54;7.70;;;4.53;;
75937;SDS011;64615;32.062;34.834;2023-08-30T00:32:20;7.47;;;4.50;;
75937;SDS011;64615;32.062;34.834;2023-08-30T00:34:49;7.68;;;4.35;;
75937;SDS011;64615;32.062;34.834;2023-08-30T00:37:15;9.70;;;4.10;;
75937;SDS011;64615;32.062;34.834;2023-08-30T00:39:41;8.77;;;4.53;;
75937;SDS011;64615;32.062;34.834;2023-08-30T00:42:07;8.73;;;4.68;;
75937;SDS011;64615;32.062;34.834;2023-08-30T00:44:33;6.50;;;4.10;;
75937;SDS011;64615;32.062;34.834;2023-08-30T00:46:59;8.35;;;4.32;;
75937;SDS011;64615;32.062;34.834;2023-08-30T00:49:26;7.78;;;4.40;;
75937;SDS011;64615;32.062;34.834;2023-08-30T00:51:52;9.85;;;4.72;;
75937;SDS011;64615;32.062;34.834;2023-08-30T00:54:19;8.80;;;4.20;;
75937;SDS011;64615;32.062;34.834;2023-08-30T00:56:46;9.05;;;4.40;;
75937;SDS011;64615;32.062;34.834;2023-08-30T00:59:12;9.18;;;4.20;;
75937;SDS011;64615;32.062;34.834;2023-08-30T01:01:39;7.38;;;4.40;;
75937;SDS011;64615;32.062;34.834;2023-08-30T01:04:06;7.43;;;3.83;;
75937;SDS011;64615;32.062;34.834;2023-08-30T01:06:32;8.10;;;4.25;;
75937;SDS011;64615;32.062;34.834;2023-08-30T01:09:00;7.70;;;4.15;;
75937;SDS011;64615;32.062;34.834;2023-08-30T01:11:32;6.85;;;4.00;;
75937;SDS011;64615;32.062;34.834;2023-08-30T01:14:09;7.28;;;4.43;;
75937;SDS011;64615;32.062;34.834;2023-08-30T01:16:40;7.18;;;4.05;;
75937;SDS011;64615;32.062;34.834;2023-08-30T01:19:26;7.70;;;4.60;;
75937;SDS011;64615;32.062;34.834;2023-08-30T01:25:31;7.30;;;4.10;;
75937;SDS011;64615;32.062;34.834;2023-08-30T01:28:03;7.95;;;4.22;;
75937;SDS011;64615;32.062;34.834;2023-08-30T01:30:32;7.90;;;4.28;;
75937;SDS011;64615;32.062;34.834;2023-08-30T01:33:00;8.10;;;4.35;;
75937;SDS011;64615;32.062;34.834;2023-08-30T01:35:27;8.23;;;3.92;;
75937;SDS011;64615;32.062;34.834;2023-08-30T01:37:58;7.30;;;4.03;;
75937;SDS011;64615;32.062;34.834;2023-08-30T01:40:26;9.73;;;4.53;;
75937;SDS011;64615;32.062;34.834;2023-08-30T01:42:55;8.13;;;4.00;;
75937;SDS011;64615;32.062;34.834;2023-08-30T01:45:23;8.45;;;3.83;;
75937;SDS011;64615;32.062;34.834;2023-08-30T01:47:49;7.40;;;3.92;;
75937;SDS011;64615;32.062;34.834;2023-08-30T01:50:17;7.10;;;4.25;;
75937;SDS011;64615;32.062;34.834;2023-08-30T01:52:45;6.63;;;3.97;;
75937;SDS011;64615;32.062;34.834;2023-08-30T01:55:11;7.72;;;4.30;;
75937;SDS011;64615;32.062;34.834;2023-08-30T01:57:39;6.75;;;3.83;;
75937;SDS011;64615;32.062;34.834;2023-08-30T02:00:05;8.27;;;4.40;;
75937;SDS011;64615;32.062;34.834;2023-08-30T02:02:31;7.05;;;4.07;;
75937;SDS011;64615;32.062;34.834;2023-08-30T02:04:57;8.75;;;4.25;;
75937;SDS011;64615;32.062;34.834;2023-08-30T02:07:46;8.77;;;4.13;;
75937;SDS011;64615;32.062;34.834;2023-08-30T02:10:16;6.97;;;3.90;;
75937;SDS011;64615;32.062;34.834;2023-08-30T02:12:48;8.43;;;4.18;;
75937;SDS011;64615;32.062;34.834;2023-08-30T02:15:18;6.72;;;4.28;;
75937;SDS011;64615;32.062;34.834;2023-08-30T02:17:45;6.88;;;3.97;;
75937;SDS011;64615;32.062;34.834;2023-08-30T02:20:11;6.70;;;4.00;;
75937;SDS011;64615;32.062;34.834;2023-08-30T02:22:37;9.35;;;4.32;;
75937;SDS011;64615;32.062;34.834;2023-08-30T02:25:03;7.13;;;4.28;;
75937;SDS011;64615;32.062;34.834;2023-08-30T02:27:32;6.35;;;3.90;;
75937;SDS011;64615;32.062;34.834;2023-08-30T02:29:59;6.65;;;4.00;;
75937;SDS011;64615;32.062;34.834;2023-08-30T02:32:25;5.75;;;4.03;;
75937;SDS011;64615;32.062;34.834;2023-08-30T02:34:52;6.75;;;4.10;;
75937;SDS011;64615;32.062;34.834;2023-08-30T02:37:18;5.53;;;3.53;;
75937;SDS011;64615;32.062;34.834;2023-08-30T02:39:44;7.00;;;3.78;;
75937;SDS011;64615;32.062;34.834;2023-08-30T02:42:10;5.28;;;3.70;;
75937;SDS011;64615;32.062;34.834;2023-08-30T02:44:35;5.95;;;3.63;;
75937;SDS011;64615;32.062;34.834;2023-08-30T02:47:01;5.68;;;3.90;;
75937;SDS011;64615;32.062;34.834;2023-08-30T02:49:27;4.97;;;3.30;;
75937;SDS011;64615;32.062;34.834;2023-08-30T02:51:52;5.32;;;3.28;;
75937;SDS011;64615;32.062;34.834;2023-08-30T02:54:18;6.03;;;3.63;;
75937;SDS011;64615;32.062;34.834;2023-08-30T02:56:44;5.43;;;3.47;;
75937;SDS011;64615;32.062;34.834;2023-08-30T02:59:10;7.03;;;3.67;;
75937;SDS011;64615;32.062;34.834;2023-08-30T03:01:36;5.15;;;3.10;;
75937;SDS011;64615;32.062;34.834;2023-08-30T03:04:06;5.72;;;3.22;;
75937;SDS011;64615;32.062;34.834;2023-08-30T03:06:33;5.40;;;3.72;;
75937;SDS011;64615;32.062;34.834;2023-08-30T03:08:59;8.30;;;3.53;;
75937;SDS011;64615;32.062;34.834;2023-08-30T03:11:25;5.93;;;3.72;;
75937;SDS011;64615;32.062;34.834;2023-08-30T03:13:52;6.93;;;3.72;;
75937;SDS011;64615;32.062;34.834;2023-08-30T03:16:18;5.53;;;3.28;;
75937;SDS011;64615;32.062;34.834;2023-08-30T03:18:44;6.95;;;3.47;;
75937;SDS011;64615;32.062;34.834;2023-08-30T03:21:10;5.93;;;3.50;;
75937;SDS011;64615;32.062;34.834;2023-08-30T03:23:36;6.38;;;3.75;;
75937;SDS011;64615;32.062;34.834;2023-08-30T03:26:13;6.35;;;3.78;;
75937;SDS011;64615;32.062;34.834;2023-08-30T03:28:40;5.25;;;3.17;;
75937;SDS011;64615;32.062;34.834;2023-08-30T03:33:38;7.45;;;3.45;;
75937;SDS011;64615;32.062;34.834;2023-08-30T03:36:06;8.57;;;3.90;;
75937;SDS011;64615;32.062;34.834;2023-08-30T03:38:35;9.13;;;3.60;;
75937;SDS011;64615;32.062;34.834;2023-08-30T03:41:01;8.10;;;3.67;;
75937;SDS011;64615;32.062;34.834;2023-08-30T03:43:29;9.98;;;3.55;;
75937;SDS011;64615;32.062;34.834;2023-08-30T03:45:55;7.13;;;3.58;;
75937;SDS011;64615;32.062;34.834;2023-08-30T03:48:20;8.82;;;3.80;;
75937;SDS011;64615;32.062;34.834;2023-08-30T03:50:46;9.07;;;3.67;;
75937;SDS011;64615;32.062;34.834;2023-08-30T03:53:11;8.32;;;3.67;;
75937;SDS011;64615;32.062;34.834;2023-08-30T03:55:37;11.38;;;3.75;;
75937;SDS011;64615;32.062;34.834;2023-08-30T03:58:03;13.13;;;4.03;;
75937;SDS011;64615;32.062;34.834;2023-08-30T04:00:28;10.73;;;3.58;;
75937;SDS011;64615;32.062;34.834;2023-08-30T04:02:54;10.40;;;3.58;;
75937;SDS011;64615;32.062;34.834;2023-08-30T04:05:20;13.48;;;4.53;;
75937;SDS011;64615;32.062;34.834;2023-08-30T04:07:45;12.25;;;4.80;;
75937;SDS011;64615;32.062;34.834;2023-08-30T04:10:11;17.30;;;5.00;;
75937;SDS011;64615;32.062;34.834;2023-08-30T04:12:37;22.00;;;6.43;;
75937;SDS011;64615;32.062;34.834;2023-08-30T04:15:02;23.30;;;6.60;;
75937;SDS011;64615;32.062;34.834;2023-08-30T04:17:28;22.55;;;6.80;;
75937;SDS011;64615;32.062;34.834;2023-08-30T04:19:54;20.92;;;7.25;;
75937;SDS011;64615;32.062;34.834;2023-08-30T04:22:20;17.50;;;6.43;;
75937;SDS011;64615;32.062;34.834;2023-08-30T04:24:46;20.48;;;7.07;;
75937;SDS011;64615;32.062;34.834;2023-08-30T04:27:12;23.23;;;7.15;;
75937;SDS011;64615;32.062;34.834;2023-08-30T04:29:38;20.45;;;7.43;;
75937;SDS011;64615;32.062;34.834;2023-08-30T04:32:03;23.52;;;7.38;;
75937;SDS011;64615;32.062;34.834;2023-08-30T04:34:30;23.45;;;7.28;;
75937;SDS011;64615;32.062;34.834;2023-08-30T04:36:56;29.92;;;7.82;;
75937;SDS011;64615;32.062;34.834;2023-08-30T04:39:22;21.52;;;7.10;;
75937;SDS011;64615;32.062;34.834;2023-08-30T04:41:47;23.80;;;8.65;;
75937;SDS011;64615;32.062;34.834;2023-08-30T04:44:13;26.90;;;8.57;;
75937;SDS011;64615;32.062;34.834;2023-08-30T04:46:39;26.20;;;8.88;;
75937;SDS011;64615;32.062;34.834;2023-08-30T04:49:05;27.77;;;8.20;;
75937;SDS011;64615;32.062;34.834;2023-08-30T04:51:30;19.65;;;7.88;;
75937;SDS011;64615;32.062;34.834;2023-08-30T04:53:56;19.27;;;8.20;;
75937;SDS011;64615;32.062;34.834;2023-08-30T04:56:22;27.75;;;8.98;;
75937;SDS011;64615;32.062;34.834;2023-08-30T04:58:48;29.58;;;9.10;;
75937;SDS011;64615;32.062;34.834;2023-08-30T05:01:15;32.60;;;9.02;;
75937;SDS011;64615;32.062;34.834;2023-08-30T05:03:41;23.30;;;8.32;;
75937;SDS011;64615;32.062;34.834;2023-08-30T05:06:07;29.42;;;9.73;;
75937;SDS011;64615;32.062;34.834;2023-08-30T05:08:33;22.77;;;9.00;;
75937;SDS011;64615;32.062;34.834;2023-08-30T05:10:58;25.60;;;9.15;;
75937;SDS011;64615;32.062;34.834;2023-08-30T05:13:24;19.33;;;8.40;;
75937;SDS011;64615;32.062;34.834;2023-08-30T05:15:50;26.70;;;9.00;;
75937;SDS011;64615;32.062;34.834;2023-08-30T05:18:16;26.70;;;8.98;;
75937;SDS011;64615;32.062;34.834;2023-08-30T05:20:42;26.05;;;8.80;;
75937;SDS011;64615;32.062;34.834;2023-08-30T05:23:07;27.52;;;8.68;;
75937;SDS011;64615;32.062;34.834;2023-08-30T05:25:33;23.08;;;8.63;;
75937;SDS011;64615;32.062;34.834;2023-08-30T05:27:58;21.92;;;8.10;;
75937;SDS011;64615;32.062;34.834;2023-08-30T05:30:24;28.58;;;8.35;;
75937;SDS011;64615;32.062;34.834;2023-08-30T05:32:50;33.80;;;8.57;;
75937;SDS011;64615;32.062;34.834;2023-08-30T05:35:15;29.95;;;8.18;;
75937;SDS011;64615;32.062;34.834;2023-08-30T05:37:41;30.52;;;8.05;;
75937;SDS011;64615;32.062;34.834;2023-08-30T05:40:07;21.38;;;7.53;;
75937;SDS011;64615;32.062;34.834;2023-08-30T05:42:33;35.15;;;8.18;;
75937;SDS011;64615;32.062;34.834;2023-08-30T05:44:58;23.88;;;7.75;;
75937;SDS011;64615;32.062;34.834;2023-08-30T05:47:24;23.42;;;7.95;;
75937;SDS011;64615;32.062;34.834;2023-08-30T05:49:50;26.15;;;7.47;;
75937;SDS011;64615;32.062;34.834;2023-08-30T05:52:15;21.20;;;7.38;;
75937;SDS011;64615;32.062;34.834;2023-08-30T05:54:41;29.48;;;7.38;;
75937;SDS011;64615;32.062;34.834;2023-08-30T05:57:09;24.95;;;7.03;;
75937;SDS011;64615;32.062;34.834;2023-08-30T06:02:01;25.20;;;7.15;;
75937;SDS011;64615;32.062;34.834;2023-08-30T06:04:27;17.35;;;7.65;;
75937;SDS011;64615;32.062;34.834;2023-08-30T06:06:52;26.67;;;7.35;;
75937;SDS011;64615;32.062;34.834;2023-08-30T06:09:18;19.00;;;7.10;;
75937;SDS011;64615;32.062;34.834;2023-08-30T06:11:44;26.00;;;7.15;;
75937;SDS011;64615;32.062;34.834;2023-08-30T06:14:09;15.85;;;6.75;;
75937;SDS011;64615;32.062;34.834;2023-08-30T06:16:35;16.02;;;6.47;;
75937;SDS011;64615;32.062;34.834;2023-08-30T06:19:00;18.67;;;7.10;;
75937;SDS011;64615;32.062;34.834;2023-08-30T06:21:26;18.55;;;6.78;;
75937;SDS011;64615;32.062;34.834;2023-08-30T06:23:52;14.32;;;6.32;;
75937;SDS011;64615;32.062;34.834;2023-08-30T06:26:18;17.83;;;5.97;;
75937;SDS011;64615;32.062;34.834;2023-08-30T06:28:44;17.52;;;6.97;;
75937;SDS011;64615;32.062;34.834;2023-08-30T06:31:10;13.57;;;6.13;;
75937;SDS011;64615;32.062;34.834;2023-08-30T06:33:35;15.38;;;5.90;;
75937;SDS011;64615;32.062;34.834;2023-08-30T06:36:01;16.17;;;6.18;;
75937;SDS011;64615;32.062;34.834;2023-08-30T06:38:27;13.00;;;6.10;;
75937;SDS011;64615;32.062;34.834;2023-08-30T06:40:53;14.65;;;6.43;;
75937;SDS011;64615;32.062;34.834;2023-08-30T06:43:19;13.35;;;6.03;;
75937;SDS011;64615;32.062;34.834;2023-08-30T06:45:44;9.95;;;5.80;;
75937;SDS011;64615;32.062;34.834;2023-08-30T06:48:11;10.45;;;5.57;;
75937;SDS011;64615;32.062;34.834;2023-08-30T06:50:37;10.93;;;5.70;;
75937;SDS011;64615;32.062;34.834;2023-08-30T06:53:03;20.10;;;6.20;;
75937;SDS011;64615;32.062;34.834;2023-08-30T06:55:29;15.10;;;5.70;;
75937;SDS011;64615;32.062;34.834;2023-08-30T06:57:54;14.63;;;5.70;;
75937;SDS011;64615;32.062;34.834;2023-08-30T07:00:20;13.48;;;5.68;;
75937;SDS011;64615;32.062;34.834;2023-08-30T07:02:46;9.10;;;5.22;;
75937;SDS011;64615;32.062;34.834;2023-08-30T07:05:12;12.48;;;6.03;;
75937;SDS011;64615;32.062;34.834;2023-08-30T07:07:38;9.43;;;5.40;;
75937;SDS011;64615;32.062;34.834;2023-08-30T07:10:04;12.40;;;5.30;;
75937;SDS011;64615;32.062;34.834;2023-08-30T07:12:30;11.93;;;5.30;;
75937;SDS011;64615;32.062;34.834;2023-08-30T07:14:56;9.82;;;5.45;;
75937;SDS011;64615;32.062;34.834;2023-08-30T07:17:22;9.95;;;4.60;;
75937;SDS011;64615;32.062;34.834;2023-08-30T07:19:48;12.05;;;5.50;;
75937;SDS011;64615;32.062;34.834;2023-08-30T07:22:14;10.35;;;5.22;;
75937;SDS011;64615;32.062;34.834;2023-08-30T07:24:44;9.52;;;5.20;;
75937;SDS011;64615;32.062;34.834;2023-08-30T07:27:10;9.27;;;4.97;;
75937;SDS011;64615;32.062;34.834;2023-08-30T07:29:37;11.45;;;5.25;;
75937;SDS011;64615;32.062;34.834;2023-08-30T07:32:05;9.00;;;5.00;;
75937;SDS011;64615;32.062;34.834;2023-08-30T07:34:31;9.55;;;4.70;;
75937;SDS011;64615;32.062;34.834;2023-08-30T07:36:56;8.35;;;5.07;;
75937;SDS011;64615;32.062;34.834;2023-08-30T07:39:22;10.77;;;5.00;;
75937;SDS011;64615;32.062;34.834;2023-08-30T07:41:47;9.23;;;5.07;;
75937;SDS011;64615;32.062;34.834;2023-08-30T07:44:13;9.07;;;4.63;;
75937;SDS011;64615;32.062;34.834;2023-08-30T07:46:39;9.10;;;4.75;;
75937;SDS011;64615;32.062;34.834;2023-08-30T07:49:05;8.98;;;4.35;;
75937;SDS011;64615;32.062;34.834;2023-08-30T07:51:30;8.65;;;4.68;;
75937;SDS011;64615;32.062;34.834;2023-08-30T07:53:56;8.68;;;4.65;;
75937;SDS011;64615;32.062;34.834;2023-08-30T07:56:22;10.55;;;4.78;;
75937;SDS011;64615;32.062;34.834;2023-08-30T07:58:47;9.57;;;5.03;;
75937;SDS011;64615;32.062;34.834;2023-08-30T08:01:13;9.32;;;4.53;;
75937;SDS011;64615;32.062;34.834;2023-08-30T08:03:38;8.73;;;4.40;;
75937;SDS011;64615;32.062;34.834;2023-08-30T08:06:06;7.60;;;4.70;;
75937;SDS011;64615;32.062;34.834;2023-08-30T08:08:31;7.22;;;4.45;;
75937;SDS011;64615;32.062;34.834;2023-08-30T08:10:58;8.20;;;4.30;;
75937;SDS011;64615;32.062;34.834;2023-08-30T08:13:25;7.50;;;4.20;;
75937;SDS011;64615;32.062;34.834;2023-08-30T08:15:50;9.07;;;4.63;;
75937;SDS011;64615;32.062;34.834;2023-08-30T08:18:16;7.45;;;4.43;;
75937;SDS011;64615;32.062;34.834;2023-08-30T08:20:42;7.82;;;4.57;;
75937;SDS011;64615;32.062;34.834;2023-08-30T08:23:08;8.15;;;4.45;;
75937;SDS011;64615;32.062;34.834;2023-08-30T08:25:33;10.48;;;4.90;;
75937;SDS011;64615;32.062;34.834;2023-08-30T08:27:59;8.15;;;4.10;;
75937;SDS011;64615;32.062;34.834;2023-08-30T08:30:25;9.70;;;4.32;;
75937;SDS011;64615;32.062;34.834;2023-08-30T08:32:51;7.53;;;4.30;;
75937;SDS011;64615;32.062;34.834;2023-08-30T08:35:16;8.55;;;4.75;;
75937;SDS011;64615;32.062;34.834;2023-08-30T08:37:42;8.18;;;4.55;;
75937;SDS011;64615;32.062;34.834;2023-08-30T08:40:08;11.13;;;4.53;;
75937;SDS011;64615;32.062;34.834;2023-08-30T08:42:35;6.85;;;4.32;;
75937;SDS011;64615;32.062;34.834;2023-08-30T08:45:04;6.65;;;4.22;;
75937;SDS011;64615;32.062;34.834;2023-08-30T08:47:30;8.25;;;4.18;;
75937;SDS011;64615;32.062;34.834;2023-08-30T08:49:56;7.25;;;4.40;;
75937;SDS011;64615;32.062;34.834;2023-08-30T08:52:25;7.95;;;4.38;;
75937;SDS011;64615;32.062;34.834;2023-08-30T08:54:51;8.35;;;4.75;;
75937;SDS011;64615;32.062;34.834;2023-08-30T08:57:19;6.32;;;4.28;;
75937;SDS011;64615;32.062;34.834;2023-08-30T08:59:46;6.95;;;4.07;;
75937;SDS011;64615;32.062;34.834;2023-08-30T09:02:12;8.40;;;4.32;;
75937;SDS011;64615;32.062;34.834;2023-08-30T09:04:40;8.55;;;4.32;;
75937;SDS011;64615;32.062;34.834;2023-08-30T09:07:05;7.88;;;4.20;;
75937;SDS011;64615;32.062;34.834;2023-08-30T09:09:32;6.85;;;4.30;;
75937;SDS011;64615;32.062;34.834;2023-08-30T09:11:58;5.72;;;3.92;;
75937;SDS011;64615;32.062;34.834;2023-08-30T09:14:24;8.32;;;4.30;;
75937;SDS011;64615;32.062;34.834;2023-08-30T09:16:56;8.40;;;4.35;;
75937;SDS011;64615;32.062;34.834;2023-08-30T09:19:26;8.13;;;4.38;;
75937;SDS011;64615;32.062;34.834;2023-08-30T09:24:21;6.97;;;4.40;;
75937;SDS011;64615;32.062;34.834;2023-08-30T09:26:47;7.43;;;4.30;;
75937;SDS011;64615;32.062;34.834;2023-08-30T09:29:16;7.82;;;4.35;;
75937;SDS011;64615;32.062;34.834;2023-08-30T09:31:42;7.47;;;4.32;;
75937;SDS011;64615;32.062;34.834;2023-08-30T09:34:08;11.27;;;4.55;;
75937;SDS011;64615;32.062;34.834;2023-08-30T09:36:39;8.02;;;4.32;;
75937;SDS011;64615;32.062;34.834;2023-08-30T09:39:09;11.70;;;4.60;;
75937;SDS011;64615;32.062;34.834;2023-08-30T09:41:37;10.60;;;4.72;;
75937;SDS011;64615;32.062;34.834;2023-08-30T09:44:06;15.07;;;5.53;;
75937;SDS011;64615;32.062;34.834;2023-08-30T09:46:42;25.80;;;5.63;;
75937;SDS011;64615;32.062;34.834;2023-08-30T09:49:10;13.20;;;5.60;;
75937;SDS011;64615;32.062;34.834;2023-08-30T09:51:37;14.52;;;6.20;;
75937;SDS011;64615;32.062;34.834;2023-08-30T09:54:08;17.70;;;6.07;;
75937;SDS011;64615;32.062;34.834;2023-08-30T09:56:40;12.23;;;6.20;;
75937;SDS011;64615;32.062;34.834;2023-08-30T09:59:09;13.85;;;6.07;;
75937;SDS011;64615;32.062;34.834;2023-08-30T10:01:36;12.00;;;5.70;;
75937;SDS011;64615;32.062;34.834;2023-08-30T10:04:02;12.63;;;5.50;;
75937;SDS011;64615;32.062;34.834;2023-08-30T10:06:29;17.95;;;6.07;;
75937;SDS011;64615;32.062;34.834;2023-08-30T10:08:55;15.38;;;5.25;;
75937;SDS011;64615;32.062;34.834;2023-08-30T10:11:24;18.25;;;5.50;;
75937;SDS011;64615;32.062;34.834;2023-08-30T10:13:51;13.65;;;5.32;;
75937;SDS011;64615;32.062;34.834;2023-08-30T10:18:52;14.77;;;4.78;;
75937;SDS011;64615;32.062;34.834;2023-08-30T10:21:26;8.15;;;4.57;;
75937;SDS011;64615;32.062;34.834;2023-08-30T10:23:52;10.15;;;5.32;;
75937;SDS011;64615;32.062;34.834;2023-08-30T10:26:22;9.45;;;4.90;;
75937;SDS011;64615;32.062;34.834;2023-08-30T10:28:50;12.73;;;5.30;;
75937;SDS011;64615;32.062;34.834;2023-08-30T10:31:18;13.45;;;4.97;;
75937;SDS011;64615;32.062;34.834;2023-08-30T10:33:47;11.90;;;5.10;;
75937;SDS011;64615;32.062;34.834;2023-08-30T10:36:24;9.60;;;4.47;;
75937;SDS011;64615;32.062;34.834;2023-08-30T10:38:51;8.43;;;4.55;;
75937;SDS011;64615;32.062;34.834;2023-08-30T10:41:24;9.15;;;4.18;;
75937;SDS011;64615;32.062;34.834;2023-08-30T10:43:51;10.52;;;4.55;;
75937;SDS011;64615;32.062;34.834;2023-08-30T10:46:33;8.40;;;4.60;;
75937;SDS011;64615;32.062;34.834;2023-08-30T10:49:12;13.05;;;5.15;;
75937;SDS011;64615;32.062;34.834;2023-08-30T10:51:40;14.93;;;4.60;;
75937;SDS011;64615;32.062;34.834;2023-08-30T10:54:13;9.82;;;4.45;;
75937;SDS011;64615;32.062;34.834;2023-08-30T10:56:46;7.47;;;4.45;;
75937;SDS011;64615;32.062;34.834;2023-08-30T10:59:20;7.15;;;4.53;;
75937;SDS011;64615;32.062;34.834;2023-08-30T11:01:47;10.48;;;4.53;;
75937;SDS011;64615;32.062;34.834;2023-08-30T11:04:16;8.15;;;4.38;;
75937;SDS011;64615;32.062;34.834;2023-08-30T11:06:43;8.75;;;4.50;;
75937;SDS011;64615;32.062;34.834;2023-08-30T11:09:12;7.15;;;4.00;;
75937;SDS011;64615;32.062;34.834;2023-08-30T11:11:39;8.65;;;4.45;;
75937;SDS011;64615;32.062;34.834;2023-08-30T11:14:08;8.13;;;4.10;;
75937;SDS011;64615;32.062;34.834;2023-08-30T11:16:35;6.80;;;4.20;;
75937;SDS011;64615;32.062;34.834;2023-08-30T11:19:02;7.50;;;4.30;;
75937;SDS011;64615;32.062;34.834;2023-08-30T11:21:32;6.57;;;3.92;;
75937;SDS011;64615;32.062;34.834;2023-08-30T11:23:59;6.25;;;3.80;;
75937;SDS011;64615;32.062;34.834;2023-08-30T11:26:25;6.35;;;4.10;;
75937;SDS011;64615;32.062;34.834;2023-08-30T11:28:51;6.20;;;3.53;;
75937;SDS011;64615;32.062;34.834;2023-08-30T11:31:18;7.15;;;4.13;;
75937;SDS011;64615;32.062;34.834;2023-08-30T11:33:51;5.80;;;3.65;;
75937;SDS011;64615;32.062;34.834;2023-08-30T11:36:21;6.63;;;3.63;;
75937;SDS011;64615;32.062;34.834;2023-08-30T11:38:52;5.80;;;3.83;;
75937;SDS011;64615;32.062;34.834;2023-08-30T11:41:21;5.90;;;3.60;;
75937;SDS011;64615;32.062;34.834;2023-08-30T11:43:47;5.85;;;3.53;;
75937;SDS011;64615;32.062;34.834;2023-08-30T11:46:13;5.65;;;3.63;;
75937;SDS011;64615;32.062;34.834;2023-08-30T11:48:42;6.15;;;3.40;;
75937;SDS011;64615;32.062;34.834;2023-08-30T11:51:09;6.28;;;3.15;;
75937;SDS011;64615;32.062;34.834;2023-08-30T11:53:38;5.63;;;3.40;;
75937;SDS011;64615;32.062;34.834;2023-08-30T11:56:07;4.93;;;3.17;;
75937;SDS011;64615;32.062;34.834;2023-08-30T11:58:34;4.82;;;2.95;;
75937;SDS011;64615;32.062;34.834;2023-08-30T12:01:00;6.43;;;3.65;;
75937;SDS011;64615;32.062;34.834;2023-08-30T12:03:27;5.25;;;3.17;;
75937;SDS011;64615;32.062;34.834;2023-08-30T12:05:56;4.72;;;3.08;;
75937;SDS011;64615;32.062;34.834;2023-08-30T12:08:23;5.22;;;2.92;;
75937;SDS011;64615;32.062;34.834;2023-08-30T12:10:50;5.10;;;3.00;;
75937;SDS011;64615;32.062;34.834;2023-08-30T12:13:26;5.63;;;3.35;;
75937;SDS011;64615;32.062;34.834;2023-08-30T12:15:54;5.78;;;3.25;;
75937;SDS011;64615;32.062;34.834;2023-08-30T12:18:21;4.82;;;2.90;;
75937;SDS011;64615;32.062;34.834;2023-08-30T12:23:25;5.00;;;3.03;;
75937;SDS011;64615;32.062;34.834;2023-08-30T12:25:59;5.47;;;3.00;;
75937;SDS011;64615;32.062;34.834;2023-08-30T12:28:26;7.40;;;3.08;;
75937;SDS011;64615;32.062;34.834;2023-08-30T12:30:53;6.82;;;3.35;;
75937;SDS011;64615;32.062;34.834;2023-08-30T12:33:19;5.53;;;2.90;;
75937;SDS011;64615;32.062;34.834;2023-08-30T12:35:45;4.45;;;2.65;;
75937;SDS011;64615;32.062;34.834;2023-08-30T12:38:11;5.57;;;3.05;;
75937;SDS011;64615;32.062;34.834;2023-08-30T12:40:37;7.38;;;3.28;;
75937;SDS011;64615;32.062;34.834;2023-08-30T12:43:04;8.18;;;3.22;;
75937;SDS011;64615;32.062;34.834;2023-08-30T12:45:30;14.15;;;3.28;;
75937;SDS011;64615;32.062;34.834;2023-08-30T12:47:55;7.63;;;3.15;;
75937;SDS011;64615;32.062;34.834;2023-08-30T12:50:23;12.93;;;3.38;;
75937;SDS011;64615;32.062;34.834;2023-08-30T12:52:49;6.88;;;3.10;;
75937;SDS011;64615;32.062;34.834;2023-08-30T12:55:15;13.90;;;3.30;;
75937;SDS011;64615;32.062;34.834;2023-08-30T12:57:42;6.20;;;2.92;;
75937;SDS011;64615;32.062;34.834;2023-08-30T13:00:11;10.05;;;3.00;;
75937;SDS011;64615;32.062;34.834;2023-08-30T13:02:38;7.13;;;3.05;;
75937;SDS011;64615;32.062;34.834;2023-08-30T13:05:03;9.40;;;3.35;;
75937;SDS011;64615;32.062;34.834;2023-08-30T13:07:29;10.00;;;3.00;;
75937;SDS011;64615;32.062;34.834;2023-08-30T13:09:55;12.52;;;3.05;;
75937;SDS011;64615;32.062;34.834;2023-08-30T13:12:21;8.77;;;3.30;;
75937;SDS011;64615;32.062;34.834;2023-08-30T13:14:47;14.23;;;3.65;;
75937;SDS011;64615;32.062;34.834;2023-08-30T13:17:12;14.70;;;3.83;;
75937;SDS011;64615;32.062;34.834;2023-08-30T13:19:38;15.50;;;4.28;;
75937;SDS011;64615;32.062;34.834;2023-08-30T13:22:04;11.52;;;4.15;;
75937;SDS011;64615;32.062;34.834;2023-08-30T13:24:29;7.45;;;3.78;;
75937;SDS011;64615;32.062;34.834;2023-08-30T13:26:59;8.75;;;3.70;;
75937;SDS011;64615;32.062;34.834;2023-08-30T13:29:24;12.35;;;3.72;;
75937;SDS011;64615;32.062;34.834;2023-08-30T13:31:50;10.85;;;3.75;;
75937;SDS011;64615;32.062;34.834;2023-08-30T13:34:15;10.07;;;3.92;;
75937;SDS011;64615;32.062;34.834;2023-08-30T13:36:41;15.18;;;3.97;;
75937;SDS011;64615;32.062;34.834;2023-08-30T13:39:07;13.30;;;3.83;;
75937;SDS011;64615;32.062;34.834;2023-08-30T13:41:33;10.00;;;3.40;;
75937;SDS011;64615;32.062;34.834;2023-08-30T13:43:59;10.40;;;3.22;;
75937;SDS011;64615;32.062;34.834;2023-08-30T13:46:24;16.20;;;3.50;;
75937;SDS011;64615;32.062;34.834;2023-08-30T13:48:50;12.68;;;3.47;;
75937;SDS011;64615;32.062;34.834;2023-08-30T13:51:21;10.90;;;3.35;;
75937;SDS011;64615;32.062;34.834;2023-08-30T13:53:47;13.88;;;3.80;;
75937;SDS011;64615;32.062;34.834;2023-08-30T13:56:13;12.32;;;3.33;;
75937;SDS011;64615;32.062;34.834;2023-08-30T13:58:38;14.23;;;3.50;;
75937;SDS011;64615;32.062;34.834;2023-08-30T14:01:04;15.00;;;3.70;;
75937;SDS011;64615;32.062;34.834;2023-08-30T14:03:30;10.55;;;3.53;;
75937;SDS011;64615;32.062;34.834;2023-08-30T14:05:56;16.40;;;3.72;;
75937;SDS011;64615;32.062;34.834;2023-08-30T14:08:22;11.00;;;3.28;;
75937;SDS011;64615;32.062;34.834;2023-08-30T14:10:47;12.73;;;3.50;;
75937;SDS011;64615;32.062;34.834;2023-08-30T14:13:13;13.10;;;4.47;;
75937;SDS011;64615;32.062;34.834;2023-08-30T14:15:40;13.77;;;4.20;;
75937;SDS011;64615;32.062;34.834;2023-08-30T14:18:07;18.95;;;4.20;;
75937;SDS011;64615;32.062;34.834;2023-08-30T14:20:33;17.77;;;5.43;;
75937;SDS011;64615;32.062;34.834;2023-08-30T14:22:58;19.95;;;6.47;;
75937;SDS011;64615;32.062;34.834;2023-08-30T14:25:24;13.25;;;5.65;;
75937;SDS011;64615;32.062;34.834;2023-08-30T14:27:49;14.05;;;5.65;;
75937;SDS011;64615;32.062;34.834;2023-08-30T14:30:16;12.77;;;5.32;;
75937;SDS011;64615;32.062;34.834;2023-08-30T14:32:41;10.45;;;5.10;;
75937;SDS011;64615;32.062;34.834;2023-08-30T14:35:07;16.65;;;5.30;;
75937;SDS011;64615;32.062;34.834;2023-08-30T14:37:33;13.15;;;5.50;;
75937;SDS011;64615;32.062;34.834;2023-08-30T14:40:03;14.85;;;5.88;;
75937;SDS011;64615;32.062;34.834;2023-08-30T14:42:29;23.40;;;6.00;;